Hauptseite
METAR-TAF:

METAR-TAF

Flughäfen :

Isle of Man,

Flughafen Isle of Man

Breite: 54-05N, Länge: 004-38W, Höhe: 17 m

Beobachtung

Neuester Wetterbericht von vor 39 Minuten, um 00:50 UTC
Wind 22 kt aus Ost/Südost
Temperatur 3°C
Luftfeuchtigkeit 81%
Luftdruck 1026 hPa
Sichtweite 10 km oder mehr
Aufgelockert bewölkt in der Höhe von 1800 ft

METAR: EGNS 250050Z 11022KT 9999 SCT018 03/M00 Q1026

Zeit: 01:29 (01:29 UTC)

Prognose

Neuester Wetterbericht von vor 8 Stunden und 29 Minuten, um 17:00 UTC
Gültige Prognose vom 24 um 18 UTC bis 24 um 22 UTC
Wind 18 kt aus Ost/Südost
Sichtweite 10 km oder mehr
Leicht bewölkt in der Höhe von 2500 ft

TAF: EGNS 241700Z 2418/2422 12018KT 9999 FEW025

Wetterbeobachtungen und Prognosen von mehr als 4000 Flughäfen (METAR und TAF Bericht).

Die verfügbaren Stationen werden durch gelbe und rote Markierungen auf der Karte dargestellt.

Führen Sie die Maus auf sie, um den Namen der Station zu sehen.

Darauf klicken, um die Beobachtung von Wetterbeobachtungen und Prognosen zu sehen.

Um die Karte zu ändern : klicken Sie auf den grünen Tasten mit einem schwarzen Kreuz Zum Vergrößern, auf den grünen Button mit einem Gedankenstrich zu verkleinern, oder auf die grünen Pfeile für benachbarte Karten.


METAR-TAF: